createdAt,value
2016-11-22T00:00:21.057Z,10.1
2016-11-22T00:01:35.875Z,10.2
2016-11-22T00:02:49.949Z,10.39
2016-11-22T00:04:04.410Z,10.36
2016-11-22T00:05:18.740Z,10.27
2016-11-22T00:06:33.275Z,10.17
2016-11-22T00:07:47.580Z,10.18
2016-11-22T00:09:01.811Z,10.25
2016-11-22T00:10:15.931Z,10.1
2016-11-22T00:11:30.974Z,10.03
2016-11-22T00:12:45.808Z,10.09
2016-11-22T00:14:00.173Z,10.09
2016-11-22T00:15:14.462Z,9.99
2016-11-22T00:16:29.077Z,10
2016-11-22T00:17:43.859Z,9.87
2016-11-22T00:18:58.008Z,9.87
2016-11-22T00:20:13.235Z,9.8
2016-11-22T00:21:27.286Z,9.82
2016-11-22T00:22:41.380Z,9.85
2016-11-22T00:23:55.898Z,9.77
2016-11-22T00:25:10.283Z,9.76
2016-11-22T00:26:25.585Z,9.64
2016-11-22T00:27:39.658Z,9.67
2016-11-22T00:28:54.517Z,9.8
2016-11-22T00:30:09.015Z,9.77
2016-11-22T00:31:23.664Z,9.8
2016-11-22T00:32:38.431Z,9.64
2016-11-22T00:33:52.496Z,9.66
2016-11-22T00:35:09.027Z,9.67
2016-11-22T00:36:23.749Z,9.69
2016-11-22T00:37:38.282Z,9.7
2016-11-22T00:38:53.041Z,9.66
2016-11-22T00:40:07.479Z,9.67
2016-11-22T00:41:22.245Z,9.66
2016-11-22T00:42:36.329Z,9.67
2016-11-22T00:43:51.246Z,9.51
2016-11-22T00:45:05.637Z,9.47
2016-11-22T00:46:20.305Z,9.54
2016-11-22T00:47:35.101Z,9.66
2016-11-22T00:48:49.226Z,9.64
2016-11-22T00:50:03.793Z,9.76
2016-11-22T00:51:18.171Z,9.8
2016-11-22T00:52:32.217Z,9.8
2016-11-22T00:53:46.615Z,9.85
2016-11-22T00:55:01.442Z,9.87
2016-11-22T00:56:15.681Z,9.84
2016-11-22T00:57:30.026Z,9.8
2016-11-22T00:58:44.541Z,9.73
2016-11-22T00:59:58.713Z,9.8
2016-11-22T01:01:14.071Z,9.74
2016-11-22T01:05:25.536Z,9.74
2016-11-22T01:06:39.884Z,9.74
2016-11-22T01:07:53.957Z,9.77
2016-11-22T01:09:08.301Z,9.74
2016-11-22T01:10:22.700Z,9.84
2016-11-22T01:11:36.961Z,9.85
2016-11-22T01:12:51.675Z,9.76
2016-11-22T01:14:05.786Z,9.77
2016-11-22T01:15:20.175Z,9.76
2016-11-22T01:16:34.331Z,9.82
2016-11-22T01:17:48.572Z,9.76
2016-11-22T01:19:02.892Z,9.66
2016-11-22T01:20:17.552Z,9.74
2016-11-22T01:21:31.923Z,9.66
2016-11-22T01:22:46.295Z,9.69
2016-11-22T01:24:00.464Z,9.63
2016-11-22T01:25:14.774Z,9.74
2016-11-22T01:26:28.962Z,9.74
2016-11-22T01:27:43.627Z,9.7
2016-11-22T01:28:57.710Z,9.56
2016-11-22T01:30:12.665Z,9.51
2016-11-22T01:31:27.343Z,9.66
2016-11-22T01:32:41.942Z,9.56
2016-11-22T01:33:56.505Z,9.54
2016-11-22T01:35:10.631Z,9.52
2016-11-22T01:36:24.862Z,9.62
2016-11-22T01:37:39.113Z,9.62
2016-11-22T01:38:53.720Z,9.54
2016-11-22T01:40:08.340Z,9.55
2016-11-22T01:41:22.801Z,9.48
2016-11-22T01:42:37.025Z,9.44
2016-11-22T01:43:51.125Z,9.4
2016-11-22T01:45:05.505Z,9.45
2016-11-22T01:46:20.022Z,9.48
2016-11-22T01:47:34.355Z,9.49
2016-11-22T01:48:48.571Z,9.48
2016-11-22T01:50:02.610Z,9.52
2016-11-22T01:51:16.969Z,9.52
2016-11-22T01:52:31.409Z,9.56
2016-11-22T01:53:48.319Z,9.51
2016-11-22T01:55:02.432Z,9.48
2016-11-22T01:56:16.498Z,9.48
2016-11-22T01:57:30.833Z,9.49
2016-11-22T01:58:45.192Z,9.44
2016-11-22T01:59:59.629Z,9.44
2016-11-22T02:01:14.281Z,9.4
2016-11-22T02:02:28.770Z,9.48
2016-11-22T02:03:43.506Z,9.34
2016-11-22T02:04:58.179Z,9.36
2016-11-22T02:06:12.241Z,9.33
2016-11-22T02:07:26.278Z,9.33
2016-11-22T02:08:40.628Z,9.33
2016-11-22T02:09:54.808Z,9.34
2016-11-22T02:11:09.494Z,9.39
2016-11-22T02:12:23.634Z,9.37
2016-11-22T02:13:37.975Z,9.39
2016-11-22T02:14:52.359Z,9.34
2016-11-22T02:16:06.496Z,9.36
2016-11-22T02:17:21.159Z,9.36
2016-11-22T02:18:35.202Z,9.29
2016-11-22T02:19:49.527Z,9.33
2016-11-22T02:21:03.863Z,9.3
2016-11-22T02:22:17.925Z,9.31
2016-11-22T02:23:32.212Z,9.29
2016-11-22T02:24:46.321Z,9.31
2016-11-22T02:26:01.002Z,9.33
2016-11-22T02:27:15.091Z,9.33
2016-11-22T02:28:29.385Z,9.3
2016-11-22T02:29:43.727Z,9.27
2016-11-22T02:30:57.874Z,9.34
2016-11-22T02:32:12.560Z,9.29
2016-11-22T02:33:26.678Z,9.33
2016-11-22T02:34:40.995Z,9.3
2016-11-22T02:35:55.601Z,9.19
2016-11-22T02:37:09.675Z,9.15
2016-11-22T02:38:23.774Z,9.11
2016-11-22T02:39:38.159Z,9.16
2016-11-22T02:40:52.629Z,9.16
2016-11-22T02:42:07.106Z,9.19
2016-11-22T02:43:21.158Z,9.08
2016-11-22T02:44:35.704Z,9.02
2016-11-22T02:45:50.086Z,9
2016-11-22T02:47:48.686Z,8.89
2016-11-22T02:49:03.002Z,8.95
2016-11-22T02:50:17.037Z,8.9
2016-11-22T02:51:31.384Z,8.96
2016-11-22T02:52:45.471Z,8.79
2016-11-22T02:54:00.117Z,8.84
2016-11-22T02:55:14.480Z,8.93
2016-11-22T02:56:28.916Z,8.9
2016-11-22T02:57:43.627Z,8.87
2016-11-22T02:58:57.689Z,8.86
2016-11-22T03:00:12.336Z,8.99
2016-11-22T03:01:26.435Z,8.9
2016-11-22T03:02:41.386Z,8.97
2016-11-22T03:03:55.720Z,8.87
2016-11-22T03:05:09.798Z,8.86
2016-11-22T03:06:24.493Z,8.86
2016-11-22T03:07:38.575Z,8.95
2016-11-22T03:08:53.337Z,8.89
2016-11-22T03:10:08.025Z,8.82
2016-11-22T03:11:24.637Z,8.86
2016-11-22T03:12:38.869Z,8.95
2016-11-22T03:13:52.937Z,8.79
2016-11-22T03:15:07.245Z,8.86
2016-11-22T03:16:21.343Z,8.95
2016-11-22T03:17:36.042Z,8.97
2016-11-22T03:18:50.546Z,9
2016-11-22T03:20:04.964Z,9.02
2016-11-22T03:21:19.317Z,8.92
2016-11-22T03:22:33.424Z,8.9
2016-11-22T03:23:47.981Z,8.86
2016-11-22T03:25:02.120Z,8.81
2016-11-22T03:26:16.157Z,8.89
2016-11-22T03:27:30.487Z,8.87
2016-11-22T03:28:44.587Z,8.82
2016-11-22T03:29:58.918Z,8.9
2016-11-22T03:31:13.203Z,8.9
2016-11-22T03:32:27.299Z,8.95
2016-11-22T03:33:41.737Z,8.82
2016-11-22T03:34:55.825Z,8.72
2016-11-22T03:36:10.137Z,8.77
2016-11-22T03:37:24.228Z,8.81
2016-11-22T03:38:38.331Z,8.79
2016-11-22T03:39:53.246Z,8.77
2016-11-22T03:41:07.664Z,8.75
2016-11-22T03:42:21.943Z,8.77
2016-11-22T03:43:36.053Z,8.87
2016-11-22T03:44:50.126Z,8.9
2016-11-22T03:46:04.814Z,8.82
2016-11-22T03:47:19.113Z,8.87
2016-11-22T03:48:33.447Z,8.74
2016-11-22T03:49:47.848Z,8.72
2016-11-22T03:51:01.900Z,8.79
2016-11-22T03:52:19.283Z,8.77
2016-11-22T03:53:33.395Z,8.75
2016-11-22T03:54:47.986Z,8.77
2016-11-22T03:56:02.478Z,8.78
2016-11-22T03:57:16.542Z,8.79
2016-11-22T03:58:30.983Z,8.81
2016-11-22T03:59:45.097Z,8.96
2016-11-22T04:00:59.212Z,8.99
2016-11-22T04:02:14.165Z,8.95
2016-11-22T04:03:28.214Z,8.93
2016-11-22T04:04:42.586Z,9.03
2016-11-22T04:05:56.686Z,9.02
2016-11-22T04:07:10.742Z,9.05
2016-11-22T04:08:25.185Z,8.93
2016-11-22T04:09:39.623Z,9.02
2016-11-22T04:10:54.208Z,8.93
2016-11-22T04:12:08.936Z,8.95
2016-11-22T04:13:22.997Z,8.92
2016-11-22T04:14:37.274Z,8.95
2016-11-22T04:15:51.736Z,9.03
2016-11-22T04:17:06.175Z,8.92
2016-11-22T04:18:20.471Z,8.89
2016-11-22T04:19:34.679Z,8.81
2016-11-22T04:20:49.049Z,8.82
2016-11-22T04:22:03.186Z,8.64
2016-11-22T04:23:17.532Z,8.56
2016-11-22T04:27:29.152Z,8.49
2016-11-22T04:28:43.570Z,8.56
2016-11-22T04:29:59.902Z,8.57
2016-11-22T04:31:13.952Z,8.59
2016-11-22T04:32:28.359Z,8.63
2016-11-22T04:33:42.408Z,8.66
2016-11-22T04:34:57.065Z,8.75
2016-11-22T04:36:11.167Z,8.74
2016-11-22T04:37:25.648Z,8.75
2016-11-22T04:38:39.954Z,8.81
2016-11-22T04:39:54.446Z,8.84
2016-11-22T04:41:08.858Z,8.77
2016-11-22T04:42:23.102Z,8.75
2016-11-22T04:43:37.371Z,8.82
2016-11-22T04:44:51.737Z,8.79
2016-11-22T04:46:05.827Z,8.81
2016-11-22T04:47:20.171Z,8.78
2016-11-22T04:48:34.788Z,8.78
2016-11-22T04:49:48.879Z,8.79
2016-11-22T04:51:03.675Z,8.89
2016-11-22T04:52:17.883Z,8.96
2016-11-22T04:53:32.214Z,9
2016-11-22T04:54:46.961Z,9.02
2016-11-22T04:56:01.553Z,8.95
2016-11-22T04:57:16.701Z,9.08
2016-11-22T04:58:31.898Z,9.08
2016-11-22T04:59:47.821Z,9.02
2016-11-22T05:01:07.643Z,9.05
2016-11-22T05:02:30.133Z,9.15
2016-11-22T05:03:54.327Z,9.19
2016-11-22T05:05:19.016Z,9.15
2016-11-22T05:06:43.267Z,9.16
2016-11-22T05:08:07.297Z,9.24
2016-11-22T05:09:31.810Z,9.34
2016-11-22T05:10:53.536Z,9.44
2016-11-22T05:13:51.937Z,9.34
2016-11-22T05:15:10.954Z,9.36
2016-11-22T05:16:30.765Z,9.31
2016-11-22T05:17:51.998Z,9.48
2016-11-22T05:19:10.916Z,9.47
2016-11-22T05:20:31.567Z,9.47
2016-11-22T05:21:49.356Z,9.51
2016-11-22T05:23:06.112Z,9.51
2016-11-22T05:24:27.075Z,9.59
2016-11-22T05:25:46.442Z,9.63
2016-11-22T05:27:06.347Z,9.67
2016-11-22T05:28:27.525Z,9.74
2016-11-22T05:29:48.993Z,9.66
2016-11-22T05:31:07.056Z,9.49
2016-11-22T05:32:28.040Z,9.47
2016-11-22T05:33:45.843Z,9.4
2016-11-22T05:35:08.379Z,9.49
2016-11-22T05:36:26.709Z,9.48
2016-11-22T05:37:45.569Z,9.47
2016-11-22T05:39:03.655Z,9.34
2016-11-22T05:40:22.189Z,9.33
2016-11-22T05:41:39.250Z,9.39
2016-11-22T05:42:56.450Z,9.19
2016-11-22T05:44:12.493Z,9.19
2016-11-22T05:45:32.162Z,9.19
2016-11-22T05:46:53.728Z,9.11
2016-11-22T05:48:24.012Z,8.99
2016-11-22T05:49:43.795Z,8.99
2016-11-22T05:51:04.914Z,9
2016-11-22T05:52:23.264Z,9.02
2016-11-22T05:53:41.296Z,8.99
2016-11-22T05:55:01.574Z,9.02
2016-11-22T05:56:19.217Z,9.02
2016-11-22T05:57:37.011Z,9.03
2016-11-22T05:58:55.772Z,9.02
2016-11-22T06:00:13.227Z,9.05
2016-11-22T06:01:32.863Z,9.02
2016-11-22T06:02:51.698Z,8.95
2016-11-22T06:04:12.677Z,9.03
2016-11-22T06:05:29.361Z,8.95
2016-11-22T06:06:49.074Z,9
2016-11-22T06:08:07.460Z,8.89
2016-11-22T06:09:23.430Z,8.84
2016-11-22T06:10:39.229Z,8.97
2016-11-22T06:11:54.452Z,8.93
2016-11-22T06:13:11.467Z,8.92
2016-11-22T06:14:27.985Z,9.08
2016-11-22T06:15:45.798Z,8.93
2016-11-22T06:17:02.448Z,9.09
2016-11-22T06:18:18.954Z,9.12
2016-11-22T06:19:38.880Z,9.08
2016-11-22T06:21:10.143Z,9.05
2016-11-22T06:22:26.867Z,8.9
2016-11-22T06:23:43.840Z,8.97
2016-11-22T06:25:00.772Z,8.93
2016-11-22T06:26:18.035Z,8.87
2016-11-22T06:27:35.251Z,8.86
2016-11-22T06:28:50.779Z,8.81
2016-11-22T06:30:06.827Z,8.79
2016-11-22T06:31:23.350Z,8.9
2016-11-22T06:32:38.345Z,8.9
2016-11-22T06:33:52.862Z,8.93
2016-11-22T06:35:07.447Z,8.89
2016-11-22T06:36:21.711Z,9.03
2016-11-22T06:37:35.945Z,9.03
2016-11-22T06:38:50.296Z,9.05
2016-11-22T06:40:04.619Z,9.09
2016-11-22T06:41:19.739Z,9.02
2016-11-22T06:42:34.597Z,9.02
2016-11-22T06:43:49.630Z,8.99
2016-11-22T06:45:04.116Z,9.11
2016-11-22T06:46:18.767Z,9.09
2016-11-22T06:47:33.745Z,9.19
2016-11-22T06:48:48.321Z,9.21
2016-11-22T06:50:03.316Z,9.42
2016-11-22T06:51:18.038Z,9.4
2016-11-22T06:52:32.066Z,9.47
2016-11-22T06:53:46.814Z,9.45
2016-11-22T06:55:01.536Z,9.4
2016-11-22T06:56:15.599Z,9.4
2016-11-22T06:57:29.973Z,9.44
2016-11-22T06:58:44.303Z,9.44
2016-11-22T06:59:58.679Z,9.36
2016-11-22T07:01:13.340Z,9.39
2016-11-22T07:02:27.457Z,9.29
2016-11-22T07:03:41.860Z,9.19
2016-11-22T07:04:56.201Z,9.13
2016-11-22T07:06:10.508Z,9.15
2016-11-22T07:07:24.645Z,9.13
2016-11-22T07:08:39.288Z,9.18
2016-11-22T07:09:56.041Z,9.15
2016-11-22T07:11:10.283Z,9.11
2016-11-22T07:12:25.082Z,9.16
2016-11-22T07:13:39.269Z,9.02
2016-11-22T07:14:53.508Z,8.99
2016-11-22T07:16:07.932Z,9
2016-11-22T07:17:22.566Z,9.08
2016-11-22T07:18:37.275Z,8.96
2016-11-22T07:19:51.783Z,9.02
2016-11-22T07:21:06.095Z,9.02
2016-11-22T07:22:20.705Z,9.18
2016-11-22T07:23:35.626Z,9.19
2016-11-22T07:24:50.933Z,9.16
2016-11-22T07:27:34.891Z,9.09
2016-11-22T07:28:49.111Z,9.09
2016-11-22T07:30:03.763Z,8.97
2016-11-22T07:31:18.168Z,9.05
2016-11-22T07:32:32.438Z,9.11
2016-11-22T07:33:47.116Z,9.16
2016-11-22T07:35:01.841Z,9.13
2016-11-22T07:36:16.494Z,9.13
2016-11-22T07:37:30.805Z,9.21
2016-11-22T07:38:44.853Z,9.19
2016-11-22T07:39:59.117Z,9.18
2016-11-22T07:41:13.217Z,9.12
2016-11-22T07:42:28.186Z,9.13
2016-11-22T07:43:42.682Z,9.16
2016-11-22T07:44:56.970Z,9.18
2016-11-22T07:46:11.513Z,9.19
2016-11-22T07:47:25.871Z,9.29
2016-11-22T07:48:40.937Z,9.3
2016-11-22T07:49:55.492Z,9.3
2016-11-22T07:51:10.021Z,9.33
2016-11-22T07:52:24.576Z,9.49
2016-11-22T07:53:39.195Z,9.48
2016-11-22T07:54:53.593Z,9.42
2016-11-22T07:56:07.810Z,9.45
2016-11-22T07:57:22.414Z,9.55
2016-11-22T07:58:36.551Z,9.59
2016-11-22T07:59:50.789Z,9.69
2016-11-22T08:03:33.756Z,9.74
2016-11-22T08:04:48.370Z,9.7
2016-11-22T08:06:02.798Z,9.69
2016-11-22T08:07:17.471Z,9.56
2016-11-22T08:08:32.661Z,9.55
2016-11-22T08:09:47.430Z,9.69
2016-11-22T08:11:02.212Z,9.54
2016-11-22T08:12:16.299Z,9.56
2016-11-22T08:13:31.536Z,9.55
2016-11-22T08:14:46.064Z,9.49
2016-11-22T08:16:01.442Z,9.59
2016-11-22T08:17:15.950Z,9.67
2016-11-22T08:18:30.621Z,9.62
2016-11-22T08:19:45.227Z,9.69
2016-11-22T08:21:14.544Z,9.66
2016-11-22T08:22:28.972Z,9.64
2016-11-22T08:23:43.378Z,9.76
2016-11-22T08:24:58.091Z,9.82
2016-11-22T08:26:13.239Z,9.77
2016-11-22T08:27:27.952Z,9.8
2016-11-22T08:28:44.836Z,9.91
2016-11-22T08:29:59.701Z,10.02
2016-11-22T08:31:14.135Z,9.95
2016-11-22T08:32:43.545Z,9.94
2016-11-22T08:33:58.243Z,10.07
2016-11-22T08:35:13.518Z,9.99
2016-11-22T08:36:28.338Z,10.05
2016-11-22T08:37:43.677Z,10.06
2016-11-22T08:38:58.717Z,10.02
2016-11-22T08:40:13.300Z,10.09
2016-11-22T08:46:54.883Z,10.28
2016-11-22T08:48:09.788Z,10.3
2016-11-22T08:49:24.582Z,10.25
2016-11-22T08:50:39.304Z,10.28
2016-11-22T08:51:54.351Z,10.36
2016-11-22T08:53:09.868Z,10.31
2016-11-22T08:54:24.623Z,10.25
2016-11-22T08:55:39.897Z,10.25
2016-11-22T08:56:54.431Z,10.36
2016-11-22T08:58:09.031Z,10.27
2016-11-22T08:59:23.435Z,10.27
2016-11-22T09:00:38.851Z,10.23
2016-11-22T09:01:53.166Z,10.24
2016-11-22T09:03:07.500Z,10.25
2016-11-22T09:04:22.101Z,10.41
2016-11-22T09:05:36.732Z,10.41
2016-11-22T09:06:51.661Z,10.45
2016-11-22T09:08:06.182Z,10.45
2016-11-22T09:09:20.459Z,10.61
2016-11-22T09:10:35.285Z,10.62
2016-11-22T09:15:20.875Z,10.71
2016-11-22T09:20:27.580Z,10.72
2016-11-22T09:22:01.260Z,10.82
2016-11-22T09:23:36.018Z,10.79
2016-11-22T09:25:10.002Z,10.79
2016-11-22T09:27:03.748Z,10.65
2016-11-22T09:28:37.222Z,10.68
2016-11-22T09:30:11.122Z,10.71
2016-11-22T09:31:45.562Z,10.65
2016-11-22T09:33:19.274Z,10.83
2016-11-22T09:34:53.363Z,10.83
2016-11-22T09:36:26.980Z,10.83
2016-11-22T09:38:01.077Z,10.8
2016-11-22T09:39:35.011Z,10.83
2016-11-22T09:41:09.085Z,10.92
2016-11-22T09:42:42.968Z,11.15
2016-11-22T09:44:17.191Z,11.34
2016-11-22T09:46:10.294Z,11.53
2016-11-22T09:47:52.264Z,11.6
2016-11-22T09:49:26.804Z,11.74
2016-11-22T09:51:00.777Z,11.71
2016-11-22T09:52:53.457Z,11.83
2016-11-22T09:54:27.474Z,11.78
2016-11-22T09:56:01.635Z,11.68
2016-11-22T09:57:35.431Z,11.58
2016-11-22T09:59:09.053Z,11.58
2016-11-22T10:00:43.222Z,11.52
2016-11-22T10:02:17.728Z,11.41
2016-11-22T10:03:55.788Z,11.37
2016-11-22T10:05:48.493Z,11.38
2016-11-22T10:07:22.433Z,11.52
2016-11-22T10:08:56.141Z,11.58
2016-11-22T10:10:30.110Z,11.44
2016-11-22T10:12:03.927Z,11.51
2016-11-22T10:13:38.381Z,11.55
2016-11-22T10:15:11.640Z,11.56
2016-11-22T10:16:45.845Z,11.45
2016-11-22T10:21:24.785Z,11.41
2016-11-22T10:22:58.450Z,11.52
2016-11-22T10:24:32.900Z,11.65
2016-11-22T10:26:06.810Z,11.51
2016-11-22T10:27:40.415Z,11.65
2016-11-22T10:29:34.134Z,11.58
2016-11-22T10:31:07.921Z,11.74
2016-11-22T10:32:41.649Z,11.59
2016-11-22T10:34:15.472Z,11.74
2016-11-22T10:35:49.199Z,11.71
2016-11-22T10:37:22.577Z,11.73
2016-11-22T10:38:56.610Z,11.74
2016-11-22T10:40:31.943Z,11.7
2016-11-22T10:42:01.594Z,11.78
2016-11-22T10:43:35.115Z,11.73
2016-11-22T10:48:18.856Z,11.81
2016-11-22T10:49:52.509Z,11.73
2016-11-22T10:51:26.946Z,11.85
2016-11-22T10:53:20.195Z,11.74
2016-11-22T10:54:55.236Z,11.86
2016-11-22T10:56:28.767Z,11.89
2016-11-22T10:58:03.055Z,12.02
2016-11-22T10:59:36.675Z,11.99
2016-11-22T11:01:11.004Z,12.08
2016-11-22T11:02:44.261Z,12.11
2016-11-22T11:04:17.800Z,12.11
2016-11-22T11:05:51.075Z,12.15
2016-11-22T11:07:24.602Z,12.2
2016-11-22T11:08:59.214Z,12.21
2016-11-22T11:10:32.822Z,12.17
2016-11-22T11:12:07.209Z,12.32
2016-11-22T11:17:34.980Z,12.3
2016-11-22T11:18:50.151Z,12.39
2016-11-22T11:20:23.899Z,12.37
2016-11-22T11:22:16.715Z,12.43
2016-11-22T11:23:50.527Z,12.37
2016-11-22T11:25:24.370Z,12.43
2016-11-22T11:26:58.451Z,12.48
2016-11-22T11:28:32.219Z,12.51
2016-11-22T11:30:06.159Z,12.66
2016-11-22T11:31:39.947Z,12.68
2016-11-22T11:33:14.233Z,12.68
2016-11-22T11:34:47.817Z,12.9
2016-11-22T11:36:21.719Z,12.95
2016-11-22T11:37:55.314Z,12.98
2016-11-22T11:39:24.584Z,12.95
2016-11-22T11:40:58.479Z,13.06
2016-11-22T11:42:32.179Z,13.03
2016-11-22T11:44:07.106Z,13.16
2016-11-22T11:45:41.445Z,13.13
2016-11-22T11:47:36.959Z,13.17
2016-11-22T11:49:10.783Z,13.27
2016-11-22T11:50:44.818Z,13.26
2016-11-22T11:52:18.301Z,13.33
2016-11-22T11:53:53.804Z,13.33
2016-11-22T11:55:27.613Z,13.3
2016-11-22T11:57:01.141Z,13.28
2016-11-22T11:58:35.007Z,13.28
2016-11-22T12:00:09.140Z,13.21
2016-11-22T12:01:43.385Z,13.21
2016-11-22T12:03:36.589Z,13.33
2016-11-22T12:05:12.623Z,13.27
2016-11-22T12:09:24.345Z,13.42
2016-11-22T12:10:57.957Z,13.42
2016-11-22T12:12:32.385Z,13.45
2016-11-22T12:14:00.887Z,13.52
2016-11-22T12:15:36.095Z,13.49
2016-11-22T12:17:10.257Z,13.58
2016-11-22T12:18:44.027Z,13.62
2016-11-22T12:20:17.445Z,13.65
2016-11-22T12:21:51.374Z,13.71
2016-11-22T12:23:26.479Z,13.71
2016-11-22T12:24:55.700Z,13.73
2016-11-22T12:26:24.563Z,13.73
2016-11-22T12:27:39.033Z,13.76
2016-11-22T12:29:32.389Z,13.67
2016-11-22T12:31:05.847Z,13.67
2016-11-22T12:32:39.949Z,13.62
2016-11-22T12:34:13.912Z,13.55
2016-11-22T12:35:47.993Z,13.61
2016-11-22T12:37:21.729Z,13.64
2016-11-22T12:38:55.841Z,13.61
2016-11-22T12:40:30.229Z,13.62
2016-11-22T12:42:04.451Z,13.64
2016-11-22T12:43:39.724Z,13.58
2016-11-22T12:45:08.129Z,13.58
2016-11-22T12:46:42.216Z,13.75
2016-11-22T12:48:15.901Z,13.65
2016-11-22T12:49:50.018Z,13.46
2016-11-22T12:51:23.620Z,13.46
2016-11-22T12:52:57.060Z,13.6
2016-11-22T12:54:30.744Z,13.54
2016-11-22T12:56:23.584Z,13.49
2016-11-22T12:57:57.456Z,13.49
2016-11-22T12:59:31.607Z,13.6
2016-11-22T13:01:05.340Z,13.67
2016-11-22T13:02:35.024Z,13.61
2016-11-22T13:04:08.516Z,13.64
2016-11-22T13:05:42.394Z,13.6
2016-11-22T13:07:16.117Z,13.52
2016-11-22T13:08:49.788Z,13.42
2016-11-22T13:10:24.461Z,13.49
2016-11-22T13:11:58.316Z,13.64
2016-11-22T13:13:31.761Z,13.8
2016-11-22T13:15:05.322Z,13.85
2016-11-22T13:16:39.204Z,13.83
2016-11-22T13:18:12.912Z,13.86
2016-11-22T13:19:46.784Z,13.93
2016-11-22T13:21:20.394Z,14
2016-11-22T13:22:49.618Z,14.12
2016-11-22T13:24:23.427Z,14.05
2016-11-22T13:25:59.603Z,14.07
2016-11-22T13:27:33.019Z,14.05
2016-11-22T13:29:06.978Z,14.07
2016-11-22T13:30:41.044Z,14.16
2016-11-22T13:32:34.461Z,14.11
2016-11-22T13:34:08.238Z,14.16
2016-11-22T13:35:50.018Z,14.26
2016-11-22T13:37:23.520Z,14.28
2016-11-22T13:39:16.780Z,14.22
2016-11-22T13:40:50.447Z,14.22
2016-11-22T13:42:23.853Z,14.11
2016-11-22T13:43:58.348Z,14.18
2016-11-22T13:45:32.520Z,14.08
2016-11-22T13:47:07.701Z,14.04
2016-11-22T13:48:41.032Z,14.01
2016-11-22T13:50:15.506Z,14.11
2016-11-22T13:52:10.224Z,14.12
2016-11-22T13:53:24.491Z,14.05
2016-11-22T13:55:18.037Z,14.12
2016-11-22T13:56:53.089Z,14.11
2016-11-22T13:58:26.892Z,14.22
2016-11-22T14:00:00.489Z,14.23
2016-11-22T14:01:34.694Z,14.19
2016-11-22T14:06:10.391Z,14.28
2016-11-22T14:07:42.545Z,14.26
2016-11-22T14:09:16.505Z,14.26
2016-11-22T14:10:50.317Z,14.28
2016-11-22T14:12:23.865Z,14.26
2016-11-22T14:13:52.570Z,14.23
2016-11-22T14:15:07.031Z,14.28
2016-11-22T14:16:36.324Z,14.26
2016-11-22T14:18:11.002Z,14.23
2016-11-22T14:19:44.745Z,14.26
2016-11-22T14:21:18.460Z,14.28
2016-11-22T14:23:12.297Z,14.25
2016-11-22T14:24:46.204Z,14.26
2016-11-22T14:26:20.188Z,14.28
2016-11-22T14:27:53.966Z,14.3
2016-11-22T14:29:28.342Z,14.26
2016-11-22T14:31:02.752Z,14.2
2016-11-22T14:32:37.397Z,14.31
2016-11-22T14:34:11.978Z,14.28
2016-11-22T14:36:07.415Z,14.26
2016-11-22T14:37:41.716Z,14.19
2016-11-22T14:39:15.836Z,14.18
2016-11-22T14:40:50.090Z,14.15
2016-11-22T14:42:24.210Z,14.19
2016-11-22T14:43:58.580Z,14.13
2016-11-22T14:45:32.763Z,14.11
2016-11-22T14:47:07.898Z,14.03
2016-11-22T14:48:41.653Z,14
2016-11-22T14:50:34.846Z,13.95
2016-11-22T14:52:09.204Z,13.79
2016-11-22T14:53:43.438Z,13.73
2016-11-22T14:55:18.141Z,13.79
2016-11-22T14:57:20.216Z,13.78
2016-11-22T14:58:54.185Z,13.68
2016-11-22T15:00:28.876Z,13.62
2016-11-22T15:02:03.807Z,13.58
2016-11-22T15:03:37.728Z,13.65
2016-11-22T15:05:11.982Z,13.58
2016-11-22T15:07:07.317Z,13.55
2016-11-22T15:08:41.065Z,13.55
2016-11-22T15:10:14.958Z,13.49
2016-11-22T15:11:48.708Z,13.5
2016-11-22T15:13:22.856Z,13.45
2016-11-22T15:14:56.933Z,13.42
2016-11-22T15:16:58.200Z,13.42
2016-11-22T15:18:32.371Z,13.5
2016-11-22T15:20:08.007Z,13.52
2016-11-22T15:21:38.653Z,13.49
2016-11-22T15:23:12.909Z,13.46
2016-11-22T15:24:47.391Z,13.47
2016-11-22T15:26:17.385Z,13.49
2016-11-22T15:27:51.622Z,13.42
2016-11-22T15:29:26.151Z,13.31
2016-11-22T15:31:00.217Z,13.21
2016-11-22T15:32:36.354Z,13.11
2016-11-22T15:34:29.694Z,13.21
2016-11-22T15:36:04.044Z,13.19
2016-11-22T15:37:41.346Z,13.21
2016-11-22T15:39:42.224Z,13.23
2016-11-22T15:41:15.973Z,13.2
2016-11-22T15:42:49.607Z,13.19
2016-11-22T15:44:23.680Z,13.16
2016-11-22T15:45:58.085Z,13.24
2016-11-22T15:47:28.294Z,13.23
2016-11-22T15:49:01.965Z,13.21
2016-11-22T15:50:35.935Z,13.19
2016-11-22T15:52:09.670Z,13.2
2016-11-22T15:53:44.433Z,13.19
2016-11-22T15:55:17.917Z,13.21
2016-11-22T15:56:51.471Z,13.31
2016-11-22T15:58:25.367Z,13.24
2016-11-22T15:59:59.951Z,13.23
2016-11-22T16:01:53.314Z,13.23
2016-11-22T16:03:26.859Z,13.27
2016-11-22T16:05:00.910Z,13.21
2016-11-22T16:06:35.505Z,13.21
2016-11-22T16:08:09.599Z,13.12
2016-11-22T16:09:43.204Z,13.2
2016-11-22T16:11:17.235Z,13.19
2016-11-22T16:12:51.271Z,13.23
2016-11-22T16:14:26.062Z,13.16
2016-11-22T16:16:00.581Z,13.11
2016-11-22T16:17:54.646Z,13.02
2016-11-22T16:19:28.097Z,13.02
2016-11-22T16:21:01.716Z,13.16
2016-11-22T16:22:36.031Z,13.2
2016-11-22T16:24:10.086Z,13.12
2016-11-22T16:25:45.147Z,13.16
2016-11-22T16:27:19.255Z,13.06
2016-11-22T16:28:53.184Z,13.13
2016-11-22T16:30:54.790Z,13.11
2016-11-22T16:32:29.999Z,13.16
2016-11-22T16:34:05.462Z,13.11
2016-11-22T16:36:14.330Z,13.05
2016-11-22T16:37:48.477Z,13.12
2016-11-22T16:39:22.521Z,13.01
2016-11-22T16:42:06.117Z,13.16
2016-11-22T16:43:50.323Z,13.16
2016-11-22T16:45:24.259Z,13.16
2016-11-22T16:52:03.219Z,13.2
2016-11-22T16:56:14.401Z,13.27
2016-11-22T16:58:09.029Z,13.03
2016-11-22T16:59:42.723Z,13.11
2016-11-22T17:02:27.877Z,13.03
2016-11-22T17:06:32.735Z,13.08
2016-11-22T17:08:06.950Z,12.99
2016-11-22T17:09:40.227Z,12.99
2016-11-22T17:11:13.721Z,13.02
2016-11-22T17:12:43.689Z,12.98
2016-11-22T17:14:18.733Z,12.98
2016-11-22T17:15:53.269Z,13.01
2016-11-22T17:17:28.112Z,12.99
2016-11-22T17:19:01.941Z,13.05
2016-11-22T17:20:35.744Z,13.08
2016-11-22T17:22:29.987Z,13.05
2016-11-22T17:24:04.546Z,13.13
2016-11-22T17:25:39.346Z,13.11
2016-11-22T17:27:14.705Z,13.09
2016-11-22T17:29:22.293Z,13.11
2016-11-22T17:30:56.229Z,13.11
2016-11-22T17:32:29.909Z,13.13
2016-11-22T17:34:04.584Z,13.17
2016-11-22T17:35:38.133Z,13.26
2016-11-22T17:37:12.563Z,13.19
2016-11-22T17:39:05.893Z,13.13
2016-11-22T17:40:39.815Z,13.12
2016-11-22T17:42:14.039Z,13.09
2016-11-22T17:43:46.809Z,13.17
2016-11-22T17:45:20.212Z,13.16
2016-11-22T17:46:54.770Z,13.12
2016-11-22T17:48:28.298Z,13.08
2016-11-22T17:50:29.558Z,13.01
2016-11-22T17:52:03.862Z,12.93
2016-11-22T17:53:39.717Z,12.99
2016-11-22T17:55:11.563Z,13.02
2016-11-22T17:56:45.960Z,12.95
2016-11-22T17:58:21.009Z,12.95
2016-11-22T17:59:54.521Z,12.98
2016-11-22T18:01:28.523Z,12.93
2016-11-22T18:03:22.334Z,12.87
2016-11-22T18:04:56.025Z,13.01
2016-11-22T18:06:25.581Z,12.87
2016-11-22T18:07:40.184Z,12.87
2016-11-22T18:09:34.804Z,12.91
2016-11-22T18:11:38.450Z,12.91
2016-11-22T18:13:08.120Z,12.86
2016-11-22T18:14:22.958Z,12.93
2016-11-22T18:16:18.996Z,13.01
2016-11-22T18:17:53.228Z,12.98
2016-11-22T18:19:27.671Z,12.98
2016-11-22T18:21:02.412Z,13.08
2016-11-22T18:22:39.842Z,13.08
2016-11-22T18:24:40.074Z,13.12
2016-11-22T18:26:13.671Z,13.11
2016-11-22T18:27:48.381Z,13.13
2016-11-22T18:29:42.865Z,13.06
2016-11-22T18:31:17.178Z,13.02
2016-11-22T18:32:52.391Z,12.98
2016-11-22T18:34:35.876Z,13.02
2016-11-22T18:36:10.462Z,12.98
2016-11-22T18:38:04.166Z,12.98
2016-11-22T18:39:38.620Z,12.99
2016-11-22T18:41:12.761Z,12.91
2016-11-22T18:42:41.954Z,12.9
2016-11-22T18:44:15.792Z,12.88
2016-11-22T18:45:50.571Z,12.73
2016-11-22T18:47:24.978Z,12.76
2016-11-22T18:48:54.002Z,12.72
2016-11-22T18:50:27.605Z,12.65
2016-11-22T18:52:00.645Z,12.62
2016-11-22T18:53:35.468Z,12.7
2016-11-22T18:55:09.097Z,12.66
2016-11-22T18:56:39.224Z,12.69
2016-11-22T18:58:13.180Z,12.65
2016-11-22T18:59:42.834Z,12.66
2016-11-22T19:00:57.625Z,12.76
2016-11-22T19:02:52.018Z,12.84
2016-11-22T19:04:26.978Z,12.86
2016-11-22T19:05:56.850Z,12.76
2016-11-22T19:07:31.078Z,12.8
2016-11-22T19:09:00.924Z,12.8
2016-11-22T19:10:16.586Z,12.68
2016-11-22T19:12:10.490Z,12.72
2016-11-22T19:13:45.503Z,12.68
2016-11-22T19:15:20.943Z,12.72
2016-11-22T19:16:55.848Z,12.53
2016-11-22T19:18:36.343Z,12.57
2016-11-22T19:20:12.119Z,12.63
2016-11-22T19:21:46.976Z,12.57
2016-11-22T19:23:42.958Z,12.78
2016-11-22T19:25:16.960Z,12.7
2016-11-22T19:26:50.835Z,12.62